ADDS METAR Data INFO
IDs: Format: Raw Decoded Include TAF

Data at: 0941 UTC 25 Jun 2018

KDAN 250853Z AUTO 21003KT 10SM CLR 21/21 A3002 RMK AO2 SLP154 T02060206 53014
KDAN 250753Z AUTO 25004KT 10SM SCT070 21/20 A3000 RMK AO2 SLP148 T02110200
KDAN 250653Z AUTO 20003KT 10SM SCT070 21/21 A2999 RMK AO2 SLP142 T02060206
KDAN 250553Z AUTO 00000KT 10SM CLR 23/20 A2998 RMK AO2 SLP140 T02280200 10294 20217 53003
KDAN 250453Z AUTO 00000KT 10SM CLR 22/21 A2998 RMK AO2 SLP140 T02220206 403330206
KDAN 250353Z AUTO 00000KT 10SM CLR 22/20 A2997 RMK AO2 SLP136 T02220200
KDAN 250253Z AUTO 01003KT 10SM CLR 23/21 A2997 RMK AO2 SLP137 T02280206 50016
KDAN 250153Z AUTO 28003KT 10SM CLR 24/20 A2998 RMK AO2 SLP139 T02440200
KDAN 250053Z AUTO 27005KT 10SM CLR 28/19 A2995 RMK AO2 SLP131 T02830189
KDAN 242353Z AUTO 28005KT 10SM CLR 29/21 A2992 RMK AO2 SLP121 T02940206 10333 20294 53011
KDAN 242253Z AUTO 29010KT 10SM CLR 31/19 A2991 RMK AO2 SLP117 T03110194
KDAN 242153Z AUTO 26008KT 10SM FEW065 32/21 A2989 RMK AO2 SLP109 T03170206
KDAN 242053Z AUTO 25010KT 10SM SCT060 BKN075 33/22 A2989 RMK AO2 SLP110 T03280222 55013
KDAN 241953Z AUTO 24012KT 10SM CLR 33/22 A2989 RMK AO2 SLP110 T03280217
KDAN 241853Z AUTO 23009KT 10SM FEW050 32/22 A2991 RMK AO2 SLP118 T03220222
KDAN 241753Z AUTO 23012KT 10SM CLR 32/22 A2993 RMK AO2 SLP123 T03170217 10317 20233 58006
KDAN 241653Z AUTO 24011KT 10SM FEW043 32/22 A2994 RMK AO2 SLP127 T03170222
KDAN 241553Z AUTO 24007KT 10SM FEW085 30/21 A2995 RMK AO2 SLP128 T03000211
KDAN 241453Z AUTO 29008KT 10SM CLR 29/21 A2995 RMK AO2 SLP130 T02890211 55002
KDAN 241353Z AUTO 27007KT 10SM CLR 28/21 A2995 RMK AO2 SLP129 T02780211
KDAN 241253Z AUTO 26005KT 10SM CLR 26/22 A2994 RMK AO2 SLP129 T02560217
KDAN 241153Z AUTO 24011KT 10SM CLR 23/22 A2996 RMK AO2 SLP132 T02330222 10233 20206 53025
KDAN 241053Z AUTO 24003KT 10SM CLR 21/21 A2992 RMK AO2 SLP121 T02110211
KDAN 240953Z AUTO 00000KT 10SM CLR 21/21 A2990 RMK AO2 SLP112 T02110211
KDAN 240853Z AUTO 21004KT 10SM FEW080 OVC100 22/22 A2988 RMK AO2 SLP106 T02220222 55000
KDAN 240753Z AUTO 20004KT 10SM BKN085 OVC110 22/22 A2987 RMK AO2 SLP103 T02170217
KDAN 240653Z AUTO 00000KT 10SM FEW120 22/22 A2987 RMK AO2 SLP104 T02170217
KDAN 240553Z AUTO 00000KT 10SM FEW090 21/21 A2988 RMK AO2 SLP108 T02110211 10278 20211 50005
KDAN 240453Z AUTO 00000KT 10SM OVC080 22/22 A2989 RMK AO2 SLP109 T02220217 403060206
KDAN 240353Z AUTO 00000KT 10SM CLR 22/22 A2988 RMK AO2 SLP108 T02170217
KDAN 240253Z AUTO 00000KT 10SM CLR 22/22 A2987 RMK AO2 SLP102 T02220217 53010
KDAN 240153Z AUTO 00000KT 10SM CLR 23/22 A2985 RMK AO2 SLP095 T02280217
KDAN 240053Z AUTO 00000KT 10SM CLR 24/21 A2984 RMK AO2 SLP093 T02390211
KDAN 232353Z AUTO 23004KT 10SM CLR 28/21 A2983 RMK AO2 SLP092 T02780211 10306 20278 53003
KDAN 232253Z AUTO 24006KT 10SM BKN110 30/21 A2983 RMK AO2 SLP088 T03000206
KDAN 232153Z AUTO 23011KT 10SM FEW120 30/20 A2982 RMK AO2 SLP087 T03000200